Impacts TAF Board
For situational awareness. Not to be used for flight planning purposes.
IDs:

KSAN - San Diego Intl Arpt, CA, US

Issued at 1737 UTC 12 Dec 2018
Updated at 1839 UTC 12 Dec 2018
Potential Impact None Slight Moderate High
Time1751Z 12/19Z 12/20Z 12/21Z 12/22Z 12/23Z 13/00Z 13/01Z 13/02Z 13/03Z 13/04Z 13/05Z 13/06Z 13/07Z>>
Type OBS PRVL PRVL PRVL PRVL PRVL PRVL PRVL PRVL PRVL PRVL PRVL PRVL PRVL
VIS 10 >6 >6 >6 >6 >6 >6 >6 >6 >6 >6 >6 >6 >6
CIG 250 -- -- -- -- -- -- -- -- -- -- -- -- --
Cover BKN SCT SCT SCT SCT SCT SCT SCT SCT SCT SCT SCT SCT SCT
FltCat VFR VFR VFR VFR VFR VFR VFR VFR VFR VFR VFR VFR VFR VFR
WX -- -- -- -- -- -- -- -- -- -- -- -- -- --
WDir 190 230 230 230 230 230 VRB VRB VRB VRB VRB VRB VRB VRB
WSpd 4 7 7 7 7 7 4 4 4 4 4 4 4 4
WGst -- -- -- -- -- -- -- -- -- -- -- -- -- --
Raw TAF
KSAN 121737Z 1218/1324 23007KT P6SM SCT250
  FM130000 VRB04KT P6SM SCT015
  FM132000 24008KT P6SM FEW250


Raw METAR
KSAN 121751Z 19004KT 10SM FEW025 SCT200 BKN250 16/09 A3015 RMK AO2 SLP210 T01610094 10161 20122 51016
KSAN 121651Z 10004KT 10SM FEW025 FEW200 SCT250 16/09 A3015 RMK AO2 SLP209 T01560094
KSAN 121551Z 00000KT 10SM SCT200 BKN250 13/09 A3014 RMK AO2 SLP207 T01280094

METAR Board
Radar Display
Forecast Discussion
For situational awareness. Not to be used for flight planning purposes.